createdAt,value
2022-11-12T00:01:18.975Z,19.23
2022-11-12T00:03:46.976Z,16.70
2022-11-12T00:06:15.318Z,15.03
2022-11-12T00:08:43.353Z,21.70
2022-11-12T00:11:13.457Z,17.33
2022-11-12T00:13:41.456Z,21.70
2022-11-12T00:16:10.969Z,16.10
2022-11-12T00:18:38.993Z,16.53
2022-11-12T00:21:07.467Z,14.90
2022-11-12T00:23:35.409Z,19.53
2022-11-12T00:26:04.909Z,19.23
2022-11-12T00:28:37.727Z,20.90
2022-11-12T00:31:12.106Z,20.37
2022-11-12T00:33:42.003Z,19.90
2022-11-12T00:36:10.646Z,19.00
2022-11-12T00:38:38.831Z,21.10
2022-11-12T00:41:07.151Z,15.63
2022-11-12T00:43:35.593Z,14.83
2022-11-12T00:46:03.609Z,14.90
2022-11-12T00:48:32.963Z,19.27
2022-11-12T00:51:03.019Z,16.20
2022-11-12T00:53:31.056Z,16.33
2022-11-12T00:56:03.919Z,18.07
2022-11-12T00:58:32.911Z,14.90
2022-11-12T01:01:08.385Z,15.80
2022-11-12T01:03:38.158Z,13.00
2022-11-12T01:06:07.906Z,12.50
2022-11-12T01:08:36.646Z,12.97
2022-11-12T01:11:09.862Z,12.70
2022-11-12T01:13:44.364Z,11.33
2022-11-12T01:16:15.868Z,14.80
2022-11-12T01:18:45.466Z,15.13
2022-11-12T01:21:14.308Z,15.60
2022-11-12T01:23:43.577Z,17.10
2022-11-12T01:26:14.267Z,15.83
2022-11-12T01:28:43.255Z,14.93
2022-11-12T01:31:14.286Z,14.57
2022-11-12T01:33:45.285Z,16.23
2022-11-12T01:36:15.005Z,12.60
2022-11-12T01:38:44.846Z,11.50
2022-11-12T01:41:15.197Z,18.13
2022-11-12T01:43:43.233Z,11.10
2022-11-12T01:46:20.605Z,12.20
2022-11-12T01:48:55.048Z,12.67
2022-11-12T01:51:29.297Z,11.13
2022-11-12T01:54:00.314Z,17.80
2022-11-12T01:56:31.398Z,16.20
2022-11-12T01:59:04.107Z,12.70
2022-11-12T02:01:32.212Z,10.80
2022-11-12T02:04:01.620Z,14.63
2022-11-12T02:06:29.710Z,12.03
2022-11-12T02:08:58.791Z,9.77
2022-11-12T02:11:26.855Z,10.00
2022-11-12T02:14:04.924Z,11.00
2022-11-12T02:16:36.741Z,9.40
2022-11-12T02:19:08.245Z,7.63
2022-11-12T02:21:38.030Z,9.37
2022-11-12T02:24:28.185Z,10.13
2022-11-12T02:26:56.905Z,10.07
2022-11-12T02:29:24.895Z,9.87
2022-11-12T02:31:53.102Z,11.20
2022-11-12T02:34:21.086Z,8.40
2022-11-12T02:36:50.603Z,8.80
2022-11-12T02:39:19.759Z,8.37
2022-11-12T02:41:47.722Z,7.73
2022-11-12T02:44:15.674Z,7.57
2022-11-12T02:46:43.664Z,7.40
2022-11-12T02:49:11.629Z,7.13
2022-11-12T02:51:39.576Z,6.43
2022-11-12T02:54:08.905Z,6.63
2022-11-12T02:56:36.901Z,6.80
2022-11-12T02:59:04.922Z,6.30
2022-11-12T03:01:32.942Z,7.67
2022-11-12T03:04:01.328Z,6.20
2022-11-12T03:06:29.366Z,7.47
2022-11-12T03:08:57.331Z,6.50
2022-11-12T03:11:27.263Z,6.77
2022-11-12T03:13:55.282Z,6.27
2022-11-12T03:16:23.221Z,6.30
2022-11-12T03:18:51.236Z,7.27
2022-11-12T03:21:19.303Z,6.30
2022-11-12T03:23:47.280Z,7.60
2022-11-12T03:26:15.246Z,7.57
2022-11-12T03:28:44.586Z,6.60
2022-11-12T03:31:12.603Z,6.33
2022-11-12T03:33:40.583Z,5.60
2022-11-12T03:36:09.343Z,6.67
2022-11-12T03:38:37.357Z,5.00
2022-11-12T03:41:05.627Z,7.63
2022-11-12T03:43:33.800Z,5.37
2022-11-12T03:46:03.142Z,6.40
2022-11-12T03:48:31.157Z,8.30
2022-11-12T03:50:59.401Z,5.57
2022-11-12T03:53:27.700Z,6.60
2022-11-12T03:55:55.884Z,6.23
2022-11-12T03:58:24.097Z,7.03
2022-11-12T04:00:52.494Z,7.10
2022-11-12T04:03:21.866Z,7.70
2022-11-12T04:06:08.018Z,7.43
2022-11-12T04:08:38.735Z,6.50
2022-11-12T04:11:12.489Z,5.40
2022-11-12T04:13:42.061Z,5.60
2022-11-12T04:16:29.919Z,5.60
2022-11-12T04:19:19.150Z,5.10
2022-11-12T04:21:54.515Z,6.47
2022-11-12T04:24:43.646Z,6.90
2022-11-12T04:27:16.027Z,10.67
2022-11-12T04:30:03.404Z,11.10
2022-11-12T04:32:32.717Z,10.57
2022-11-12T04:35:02.383Z,8.23
2022-11-12T04:37:44.377Z,7.63
2022-11-12T04:40:31.943Z,10.77
2022-11-12T04:43:17.951Z,7.43
2022-11-12T04:45:48.747Z,8.43
2022-11-12T04:48:16.971Z,9.20
2022-11-12T04:50:51.010Z,7.10
2022-11-12T04:53:19.195Z,5.77
2022-11-12T04:55:50.616Z,7.20
2022-11-12T04:58:19.056Z,6.40
2022-11-12T05:00:47.297Z,6.17
2022-11-12T05:03:15.330Z,6.93
2022-11-12T05:05:43.541Z,6.77
2022-11-12T05:08:12.909Z,6.77
2022-11-12T05:10:40.930Z,7.63
2022-11-12T05:13:08.936Z,7.77
2022-11-12T05:15:36.932Z,7.13
2022-11-12T05:18:05.048Z,6.73
2022-11-12T05:20:33.064Z,5.83
2022-11-12T05:23:08.222Z,7.47
2022-11-12T05:25:37.663Z,5.93
2022-11-12T05:28:07.176Z,6.97
2022-11-12T05:30:36.495Z,7.30
2022-11-12T05:33:04.778Z,5.00
2022-11-12T05:35:32.767Z,6.10
2022-11-12T05:38:00.777Z,6.00
2022-11-12T05:40:28.763Z,5.20
2022-11-12T05:42:58.114Z,6.37
2022-11-12T05:45:26.056Z,7.20
2022-11-12T05:47:54.049Z,7.57
2022-11-12T05:50:22.005Z,6.37
2022-11-12T05:52:49.984Z,7.30
2022-11-12T05:55:18.097Z,6.53
2022-11-12T05:57:46.049Z,8.23
2022-11-12T06:00:17.062Z,6.43
2022-11-12T06:02:45.025Z,6.00
2022-11-12T06:05:13.028Z,7.10
2022-11-12T06:07:41.412Z,6.60
2022-11-12T06:10:10.135Z,7.23
2022-11-12T06:12:38.093Z,7.60
2022-11-12T06:15:07.560Z,7.97
2022-11-12T06:17:36.843Z,8.90
2022-11-12T06:20:05.512Z,7.20
2022-11-12T06:22:33.509Z,7.40
2022-11-12T06:25:01.488Z,8.20
2022-11-12T06:27:29.487Z,8.00
2022-11-12T06:29:57.449Z,7.70
2022-11-12T06:32:25.630Z,7.30
2022-11-12T06:34:54.986Z,7.60
2022-11-12T06:37:23.052Z,10.50
2022-11-12T06:39:51.035Z,7.97
2022-11-12T06:42:19.110Z,8.47
2022-11-12T06:44:47.102Z,9.50
2022-11-12T06:47:15.664Z,10.10
2022-11-12T06:49:43.613Z,7.37
2022-11-12T06:52:16.584Z,6.90
2022-11-12T06:54:45.107Z,7.13
2022-11-12T06:57:13.355Z,6.63
2022-11-12T06:59:41.350Z,7.77
2022-11-12T07:02:12.658Z,7.70
2022-11-12T07:04:40.618Z,6.47
2022-11-12T07:07:10.827Z,6.47
2022-11-12T07:09:40.519Z,6.47
2022-11-12T07:12:08.965Z,6.60
2022-11-12T07:14:37.029Z,7.17
2022-11-12T07:17:05.106Z,9.60
2022-11-12T07:19:33.149Z,7.27
2022-11-12T07:22:01.102Z,6.60
2022-11-12T07:24:29.099Z,5.90
2022-11-12T07:27:01.445Z,7.03
2022-11-12T07:29:46.306Z,7.27
2022-11-12T07:32:15.502Z,11.10
2022-11-12T07:34:43.496Z,7.30
2022-11-12T07:37:11.632Z,6.37
2022-11-12T07:39:39.652Z,6.07
2022-11-12T07:42:09.187Z,4.37
2022-11-12T07:44:37.228Z,4.60
2022-11-12T07:47:05.336Z,5.17
2022-11-12T07:49:33.355Z,4.73
2022-11-12T07:52:01.336Z,5.00
2022-11-12T07:54:29.324Z,4.80
2022-11-12T07:56:58.352Z,5.83
2022-11-12T07:59:28.111Z,5.30
2022-11-12T08:01:56.269Z,5.77
2022-11-12T08:04:24.320Z,6.10
2022-11-12T08:06:52.351Z,5.43
2022-11-12T08:09:20.520Z,5.30
2022-11-12T08:11:48.533Z,5.23
2022-11-12T08:14:16.598Z,5.50
2022-11-12T08:16:46.623Z,4.73
2022-11-12T08:19:14.855Z,7.00
2022-11-12T08:21:42.930Z,6.00
2022-11-12T08:24:11.198Z,5.90
2022-11-12T08:26:39.230Z,5.70
2022-11-12T08:29:08.800Z,6.37
2022-11-12T08:31:37.388Z,5.83
2022-11-12T08:34:16.087Z,7.67
2022-11-12T08:36:50.201Z,7.05
2022-11-12T08:39:18.195Z,6.37
2022-11-12T08:41:46.237Z,7.30
2022-11-12T08:44:14.251Z,6.90
2022-11-12T08:46:42.305Z,6.83
2022-11-12T08:49:11.646Z,8.00
2022-11-12T08:51:39.597Z,7.60
2022-11-12T08:54:07.596Z,7.17
2022-11-12T08:56:35.653Z,8.27
2022-11-12T08:59:07.220Z,7.50
2022-11-12T09:01:35.772Z,7.47
2022-11-12T09:04:03.885Z,6.87
2022-11-12T09:06:33.281Z,9.00
2022-11-12T09:09:01.361Z,7.70
2022-11-12T09:11:32.188Z,8.27
2022-11-12T09:14:00.279Z,8.93
2022-11-12T09:16:28.331Z,8.70
2022-11-12T09:18:56.310Z,8.40
2022-11-12T09:21:24.878Z,8.43
2022-11-12T09:23:55.472Z,8.07
2022-11-12T09:26:23.506Z,7.37
2022-11-12T09:28:52.326Z,7.93
2022-11-12T09:31:20.393Z,9.13
2022-11-12T09:33:48.479Z,8.17
2022-11-12T09:36:19.007Z,9.50
2022-11-12T09:38:47.098Z,8.80
2022-11-12T09:41:26.866Z,9.70
2022-11-12T09:43:58.235Z,8.80
2022-11-12T09:46:35.059Z,8.80
2022-11-12T09:49:11.930Z,9.40
2022-11-12T09:51:44.344Z,9.97
2022-11-12T09:54:22.883Z,10.37
2022-11-12T09:56:53.558Z,10.60
2022-11-12T09:59:24.006Z,10.43
2022-11-12T10:02:11.518Z,11.03
2022-11-12T10:05:10.498Z,10.40
2022-11-12T10:07:57.695Z,9.60
2022-11-12T10:10:37.322Z,10.27
2022-11-12T10:13:28.358Z,10.40
2022-11-12T10:16:30.139Z,11.50
2022-11-12T10:19:43.649Z,10.63
2022-11-12T10:22:59.508Z,12.00
2022-11-12T10:25:28.058Z,11.40
2022-11-12T10:27:57.105Z,14.30
2022-11-12T10:30:27.502Z,11.77
2022-11-12T10:32:55.521Z,12.13
2022-11-12T10:35:25.041Z,12.50
2022-11-12T10:38:00.092Z,12.67
2022-11-12T10:40:34.939Z,12.57
2022-11-12T10:43:05.641Z,12.10
2022-11-12T10:45:35.290Z,12.63
2022-11-12T10:48:03.285Z,12.43
2022-11-12T10:50:36.695Z,12.20
2022-11-12T10:53:07.685Z,11.07
2022-11-12T10:55:38.068Z,12.87
2022-11-12T10:58:19.696Z,13.20
2022-11-12T11:01:01.861Z,13.83
2022-11-12T11:03:34.899Z,12.27
2022-11-12T11:06:06.449Z,11.30
2022-11-12T11:08:39.128Z,13.70
2022-11-12T11:11:26.957Z,12.20
2022-11-12T11:14:00.104Z,13.47
2022-11-12T11:16:31.914Z,13.30
2022-11-12T11:19:03.708Z,14.13
2022-11-12T11:21:49.415Z,14.57
2022-11-12T11:24:37.463Z,15.53
2022-11-12T11:27:13.861Z,13.43
2022-11-12T11:30:05.380Z,13.90
2022-11-12T11:33:23.012Z,14.10
2022-11-12T11:36:07.141Z,13.47
2022-11-12T11:38:53.083Z,16.23
2022-11-12T11:41:49.820Z,13.00
2022-11-12T11:44:32.314Z,15.33
2022-11-12T11:47:14.302Z,11.80
2022-11-12T11:50:21.410Z,13.37
2022-11-12T11:53:03.677Z,13.30
2022-11-12T11:55:54.099Z,13.37
2022-11-12T11:58:53.431Z,12.43
2022-11-12T12:01:27.971Z,13.10
2022-11-12T12:04:22.774Z,14.33
2022-11-12T12:07:09.261Z,13.10
2022-11-12T12:09:45.923Z,15.00
2022-11-12T12:12:26.380Z,14.43
2022-11-12T12:15:11.460Z,15.43
2022-11-12T12:17:50.849Z,14.17
2022-11-12T12:20:23.913Z,15.63
2022-11-12T12:23:00.567Z,14.67
2022-11-12T12:25:35.981Z,15.40
2022-11-12T12:28:14.624Z,13.70
2022-11-12T12:30:47.586Z,15.00
2022-11-12T12:33:31.177Z,14.70
2022-11-12T12:36:07.532Z,14.13
2022-11-12T12:38:44.455Z,17.07
2022-11-12T12:41:27.820Z,14.93
2022-11-12T12:44:03.239Z,15.07
2022-11-12T12:46:38.540Z,16.80
2022-11-12T12:49:08.443Z,17.27
2022-11-12T12:51:36.446Z,15.97
2022-11-12T12:54:06.072Z,17.27
2022-11-12T12:56:49.182Z,15.03
2022-11-12T12:59:23.437Z,15.33
2022-11-12T13:02:00.577Z,14.67
2022-11-12T13:04:52.678Z,15.13
2022-11-12T13:07:39.947Z,16.30
2022-11-12T13:10:48.869Z,15.47
2022-11-12T13:13:32.700Z,18.67
2022-11-12T13:16:02.778Z,16.87
2022-11-12T13:19:04.164Z,16.53
2022-11-12T13:21:32.323Z,19.30
2022-11-12T13:24:09.306Z,20.43
2022-11-12T13:26:57.237Z,16.50
2022-11-12T13:29:47.449Z,23.40
2022-11-12T13:32:35.050Z,17.03
2022-11-12T13:35:34.678Z,17.67
2022-11-12T13:38:12.418Z,16.50
2022-11-12T13:40:45.734Z,17.50
2022-11-12T13:43:36.091Z,14.87
2022-11-12T13:46:28.073Z,19.27
2022-11-12T13:49:00.810Z,16.97
2022-11-12T13:51:39.580Z,16.03
2022-11-12T13:54:31.385Z,16.93
2022-11-12T13:57:27.052Z,17.00
2022-11-12T14:00:21.917Z,17.70
2022-11-12T14:02:55.245Z,16.17
2022-11-12T14:05:27.324Z,17.47
2022-11-12T14:08:45.909Z,19.13
2022-11-12T14:11:45.469Z,20.57
2022-11-12T14:14:27.659Z,17.67
2022-11-12T14:17:22.526Z,17.87
2022-11-12T14:20:21.686Z,17.97
2022-11-12T14:22:49.974Z,18.20
2022-11-12T14:25:21.059Z,20.00
2022-11-12T14:27:50.929Z,18.60
2022-11-12T14:30:24.589Z,20.13
2022-11-12T14:32:59.315Z,19.07
2022-11-12T14:35:37.764Z,19.83
2022-11-12T14:38:15.301Z,19.40
2022-11-12T14:40:51.680Z,19.30
2022-11-12T14:43:33.077Z,17.00
2022-11-12T14:46:06.597Z,18.63
2022-11-12T14:48:52.126Z,19.10
2022-11-12T14:51:21.868Z,20.30
2022-11-12T14:53:56.369Z,17.50
2022-11-12T14:56:35.320Z,20.27
2022-11-12T14:59:05.096Z,23.17
2022-11-12T15:04:25.970Z,19.07
2022-11-12T15:06:55.753Z,19.30
2022-11-12T15:09:38.844Z,18.30
2022-11-12T15:12:09.948Z,20.13
2022-11-12T15:14:38.093Z,32.57
2022-11-12T15:17:06.500Z,20.77
2022-11-12T15:19:36.886Z,19.87
2022-11-12T15:22:06.035Z,18.60
2022-11-12T15:24:35.862Z,18.63
2022-11-12T15:27:35.940Z,19.13
2022-11-12T15:30:19.910Z,20.60
2022-11-12T15:32:48.286Z,21.17
2022-11-12T15:35:43.920Z,22.00
2022-11-12T15:38:16.480Z,28.23
2022-11-12T15:40:46.681Z,24.07
2022-11-12T15:43:18.174Z,18.00
2022-11-12T15:45:50.332Z,19.80
2022-11-12T15:48:18.663Z,18.30
2022-11-12T15:50:50.451Z,19.13
2022-11-12T15:53:18.891Z,20.90
2022-11-12T15:55:47.751Z,17.40
2022-11-12T15:58:18.986Z,20.73
2022-11-12T16:00:47.593Z,20.17
2022-11-12T16:03:17.573Z,31.40
2022-11-12T16:05:48.425Z,25.43
2022-11-12T16:08:16.544Z,31.80
2022-11-12T16:10:46.793Z,25.53
2022-11-12T16:13:18.537Z,22.20
2022-11-12T16:15:46.575Z,34.17
2022-11-12T16:18:14.552Z,21.73
2022-11-12T16:20:42.560Z,22.37
2022-11-12T16:23:11.935Z,22.90
2022-11-12T16:25:43.164Z,21.10
2022-11-12T16:28:15.725Z,20.57
2022-11-12T16:30:44.730Z,21.70
2022-11-12T16:33:14.070Z,24.07
2022-11-12T16:35:42.611Z,22.47
2022-11-12T16:38:15.616Z,24.17
2022-11-12T16:40:45.190Z,22.60
2022-11-12T16:43:13.412Z,22.77
2022-11-12T16:45:43.761Z,22.63
2022-11-12T16:48:16.902Z,23.07
2022-11-12T16:50:45.246Z,23.57
2022-11-12T16:53:14.709Z,24.17
2022-11-12T16:55:42.956Z,22.33
2022-11-12T16:58:14.626Z,23.70
2022-11-12T17:00:43.273Z,23.73
2022-11-12T17:03:13.738Z,25.17
2022-11-12T17:05:41.929Z,23.93
2022-11-12T17:08:10.975Z,23.43
2022-11-12T17:10:44.528Z,23.03
2022-11-12T17:13:19.008Z,23.83
2022-11-12T17:15:48.229Z,23.53
2022-11-12T17:18:16.270Z,25.63
2022-11-12T17:20:49.917Z,23.60
2022-11-12T17:23:19.625Z,22.37
2022-11-12T17:25:49.521Z,22.43
2022-11-12T17:28:17.526Z,25.17
2022-11-12T17:30:45.534Z,26.47
2022-11-12T17:33:13.535Z,24.30
2022-11-12T17:35:42.499Z,23.37
2022-11-12T17:38:10.437Z,25.13
2022-11-12T17:40:38.410Z,24.10
2022-11-12T17:43:07.755Z,24.57
2022-11-12T17:45:35.721Z,22.80
2022-11-12T17:48:03.706Z,21.50
2022-11-12T17:50:31.681Z,22.60
2022-11-12T17:52:59.679Z,20.23
2022-11-12T17:55:27.658Z,18.87
2022-11-12T17:57:55.598Z,17.73
2022-11-12T18:00:25.134Z,17.87
2022-11-12T18:02:53.127Z,17.57
2022-11-12T18:05:21.264Z,17.30
2022-11-12T18:07:49.328Z,14.90
2022-11-12T18:10:19.672Z,14.77
2022-11-12T18:12:47.905Z,15.00
2022-11-12T18:15:15.903Z,14.23
2022-11-12T18:17:47.153Z,13.77
2022-11-12T18:20:15.275Z,15.87
2022-11-12T18:22:45.094Z,13.43
2022-11-12T18:25:13.523Z,14.53
2022-11-12T18:27:41.645Z,12.13
2022-11-12T18:30:16.455Z,13.50
2022-11-12T18:32:49.881Z,13.80
2022-11-12T18:35:19.143Z,12.67
2022-11-12T18:37:47.107Z,13.50
2022-11-12T18:40:15.380Z,17.53
2022-11-12T18:42:43.401Z,17.27
2022-11-12T18:45:11.817Z,13.40
2022-11-12T18:47:40.059Z,11.57
2022-11-12T18:50:10.467Z,12.50
2022-11-12T18:52:38.472Z,15.07
2022-11-12T18:55:08.066Z,13.90
2022-11-12T18:57:36.039Z,11.53
2022-11-12T19:00:05.634Z,13.40
2022-11-12T19:02:33.572Z,12.10
2022-11-12T19:05:01.569Z,13.07
2022-11-12T19:07:30.920Z,11.93
2022-11-12T19:10:00.915Z,12.80
2022-11-12T19:12:28.889Z,11.10
2022-11-12T19:14:58.220Z,11.53
2022-11-12T19:17:30.902Z,12.83
2022-11-12T19:20:06.762Z,10.67
2022-11-12T19:22:36.073Z,10.47
2022-11-12T19:25:04.237Z,11.07
2022-11-12T19:27:32.263Z,12.07
2022-11-12T19:30:03.119Z,12.50
2022-11-12T19:32:31.531Z,11.80
2022-11-12T19:34:59.505Z,11.77
2022-11-12T19:37:33.571Z,10.43
2022-11-12T19:40:06.489Z,10.97
2022-11-12T19:42:37.207Z,10.50
2022-11-12T19:45:08.293Z,9.17
2022-11-12T19:47:39.072Z,8.30
2022-11-12T19:50:08.579Z,10.60
2022-11-12T19:52:36.530Z,10.07
2022-11-12T19:55:07.120Z,9.30
2022-11-12T19:57:35.085Z,8.70
2022-11-12T20:00:05.822Z,10.00
2022-11-12T20:02:35.132Z,10.03
2022-11-12T20:05:03.909Z,13.37
2022-11-12T20:07:35.017Z,10.30
2022-11-12T20:10:03.025Z,9.33
2022-11-12T20:12:34.420Z,11.10
2022-11-12T20:15:02.388Z,11.27
2022-11-12T20:17:33.393Z,9.93
2022-11-12T20:20:01.646Z,11.00
2022-11-12T20:22:32.452Z,11.17
2022-11-12T20:25:05.202Z,12.10
2022-11-12T20:27:37.517Z,9.80
2022-11-12T20:30:07.308Z,9.50
2022-11-12T20:32:38.304Z,8.70
2022-11-12T20:35:14.147Z,10.23
2022-11-12T20:37:45.899Z,12.50
2022-11-12T20:40:14.088Z,10.80
2022-11-12T20:42:43.788Z,12.13
2022-11-12T20:45:12.413Z,8.63
2022-11-12T20:47:40.458Z,10.07
2022-11-12T20:50:09.088Z,10.00
2022-11-12T20:52:37.065Z,10.30
2022-11-12T20:55:05.718Z,8.17
2022-11-12T20:57:33.721Z,7.40
2022-11-12T21:00:03.129Z,9.77
2022-11-12T21:02:31.189Z,9.20
2022-11-12T21:04:59.190Z,9.10
2022-11-12T21:07:27.234Z,9.27
2022-11-12T21:09:55.249Z,7.70
2022-11-12T21:12:23.256Z,7.90
2022-11-12T21:14:52.042Z,9.07
2022-11-12T21:17:21.402Z,8.27
2022-11-12T21:19:49.432Z,7.37
2022-11-12T21:22:17.649Z,7.83
2022-11-12T21:24:45.634Z,6.93
2022-11-12T21:27:13.842Z,6.97
2022-11-12T21:29:42.135Z,8.33
2022-11-12T21:32:10.141Z,8.03
2022-11-12T21:34:39.486Z,8.07
2022-11-12T21:37:07.509Z,7.23
2022-11-12T21:39:35.534Z,7.60
2022-11-12T21:42:03.512Z,8.40
2022-11-12T21:44:34.844Z,7.50
2022-11-12T21:47:11.630Z,6.33
2022-11-12T21:49:40.988Z,8.00
2022-11-12T21:52:12.560Z,7.50
2022-11-12T21:54:42.519Z,8.33
2022-11-12T21:57:12.758Z,9.77
2022-11-12T21:59:44.286Z,7.97
2022-11-12T22:02:15.597Z,7.17
2022-11-12T22:04:47.750Z,7.33
2022-11-12T22:07:15.745Z,6.47
2022-11-12T22:09:43.737Z,7.43
2022-11-12T22:12:11.773Z,6.40
2022-11-12T22:14:39.807Z,5.93
2022-11-12T22:17:07.806Z,6.27
2022-11-12T22:19:40.693Z,7.13
2022-11-12T22:22:10.031Z,7.07
2022-11-12T22:24:38.000Z,6.00
2022-11-12T22:27:07.078Z,6.83
2022-11-12T22:29:35.067Z,7.37
2022-11-12T22:32:03.023Z,6.27
2022-11-12T22:34:31.013Z,6.97
2022-11-12T22:36:59.007Z,6.77
2022-11-12T22:39:28.354Z,7.60
2022-11-12T22:41:56.346Z,5.70
2022-11-12T22:44:24.354Z,6.33
2022-11-12T22:46:52.386Z,5.70
2022-11-12T22:49:20.354Z,5.93
2022-11-12T22:51:48.325Z,6.20
2022-11-12T22:54:17.959Z,6.53
2022-11-12T22:56:47.309Z,5.50
2022-11-12T22:59:15.442Z,7.87
2022-11-12T23:01:44.565Z,9.27
2022-11-12T23:04:12.521Z,9.73
2022-11-12T23:06:40.535Z,11.40
2022-11-12T23:09:19.104Z,7.70
2022-11-12T23:11:48.407Z,10.50
2022-11-12T23:14:17.600Z,10.10
2022-11-12T23:16:45.588Z,9.50
2022-11-12T23:19:13.556Z,7.70
2022-11-12T23:21:41.841Z,8.73
2022-11-12T23:24:10.077Z,8.57
2022-11-12T23:26:38.630Z,7.60
2022-11-12T23:29:08.161Z,7.70
2022-11-12T23:31:36.158Z,7.50
2022-11-12T23:34:04.194Z,7.53
2022-11-12T23:36:33.146Z,8.50
2022-11-12T23:39:01.166Z,7.17
2022-11-12T23:41:29.433Z,6.27
2022-11-12T23:43:59.093Z,6.80
2022-11-12T23:46:28.418Z,6.43
2022-11-12T23:48:56.449Z,6.50
2022-11-12T23:51:27.890Z,7.63
2022-11-12T23:53:55.874Z,8.20
2022-11-12T23:56:23.859Z,7.20
2022-11-12T23:58:56.774Z,8.10
